Fame, Mississippi
Current Conditions -  °F | °C
As of 4:15 PM on Friday 31 Oct 2014 (Local Time) from KGNF Reporting Station
Broken Clouds Broken Clouds  
Wind Chill: 13°   Ceiling: 5000
Heat Index: 13°   Visibility: 10mi
Dew Point:   Wind: 17mph
Humidity: 58%   Direction: 340°NNW
Pressure: 30.13"   Gusts: 24mph
Location:  33.6106°N, 89.3673°W
Report Text: KGNF 312115Z AUTO 34015G21KT 10SM SCT036 SCT043 BKN050 13/05 A3013 RMK AO2
Loading
Personal Weather Stations






























Interactive Weather Map
Tropical Storm Tracking
New forecast layout! Learn more

10-Day Weather Forecast

Advertisements
Track Severe Weather on mobile